sensor_id;sensor_type;location;lat;lon;timestamp;P1;durP1;ratioP1;P2;durP2;ratioP2
39772;SDS011;25451;51.960;6.250;2024-01-30T00:01:00;12.57;;;5.40;;
39772;SDS011;25451;51.960;6.250;2024-01-30T00:03:25;12.30;;;5.87;;
39772;SDS011;25451;51.960;6.250;2024-01-30T00:05:51;11.45;;;5.32;;
39772;SDS011;25451;51.960;6.250;2024-01-30T00:08:17;12.85;;;5.70;;
39772;SDS011;25451;51.960;6.250;2024-01-30T00:10:42;10.57;;;5.33;;
39772;SDS011;25451;51.960;6.250;2024-01-30T00:13:08;10.73;;;5.23;;
39772;SDS011;25451;51.960;6.250;2024-01-30T00:15:33;11.97;;;5.87;;
39772;SDS011;25451;51.960;6.250;2024-01-30T00:17:59;10.82;;;5.88;;
39772;SDS011;25451;51.960;6.250;2024-01-30T00:20:25;13.60;;;5.53;;
39772;SDS011;25451;51.960;6.250;2024-01-30T00:22:50;11.07;;;5.72;;
39772;SDS011;25451;51.960;6.250;2024-01-30T00:25:15;15.38;;;5.78;;
39772;SDS011;25451;51.960;6.250;2024-01-30T00:27:41;12.15;;;6.10;;
39772;SDS011;25451;51.960;6.250;2024-01-30T00:30:06;12.00;;;5.87;;
39772;SDS011;25451;51.960;6.250;2024-01-30T00:32:32;12.53;;;6.10;;
39772;SDS011;25451;51.960;6.250;2024-01-30T00:34:57;10.60;;;5.80;;
39772;SDS011;25451;51.960;6.250;2024-01-30T00:37:23;11.70;;;5.68;;
39772;SDS011;25451;51.960;6.250;2024-01-30T00:39:48;11.93;;;5.82;;
39772;SDS011;25451;51.960;6.250;2024-01-30T00:42:20;10.30;;;5.55;;
39772;SDS011;25451;51.960;6.250;2024-01-30T00:44:46;11.37;;;6.00;;
39772;SDS011;25451;51.960;6.250;2024-01-30T00:47:11;11.37;;;5.90;;
39772;SDS011;25451;51.960;6.250;2024-01-30T00:49:36;9.10;;;5.07;;
39772;SDS011;25451;51.960;6.250;2024-01-30T00:52:02;11.50;;;5.13;;
39772;SDS011;25451;51.960;6.250;2024-01-30T00:54:27;12.00;;;6.03;;
39772;SDS011;25451;51.960;6.250;2024-01-30T00:56:52;9.63;;;5.00;;
39772;SDS011;25451;51.960;6.250;2024-01-30T00:59:18;13.30;;;6.10;;
39772;SDS011;25451;51.960;6.250;2024-01-30T01:01:43;14.10;;;5.67;;
39772;SDS011;25451;51.960;6.250;2024-01-30T01:04:08;11.87;;;5.40;;
39772;SDS011;25451;51.960;6.250;2024-01-30T01:06:34;12.20;;;5.80;;
39772;SDS011;25451;51.960;6.250;2024-01-30T01:08:59;10.27;;;5.27;;
39772;SDS011;25451;51.960;6.250;2024-01-30T01:11:24;11.30;;;6.13;;
39772;SDS011;25451;51.960;6.250;2024-01-30T01:13:49;11.63;;;5.50;;
39772;SDS011;25451;51.960;6.250;2024-01-30T01:16:15;11.27;;;5.63;;
39772;SDS011;25451;51.960;6.250;2024-01-30T01:18:40;8.87;;;5.00;;
39772;SDS011;25451;51.960;6.250;2024-01-30T01:21:05;10.67;;;5.37;;
39772;SDS011;25451;51.960;6.250;2024-01-30T01:23:31;10.90;;;5.23;;
39772;SDS011;25451;51.960;6.250;2024-01-30T01:25:56;11.50;;;5.73;;
39772;SDS011;25451;51.960;6.250;2024-01-30T01:28:21;12.13;;;5.70;;
39772;SDS011;25451;51.960;6.250;2024-01-30T01:30:47;14.43;;;5.82;;
39772;SDS011;25451;51.960;6.250;2024-01-30T01:33:12;12.00;;;5.53;;
39772;SDS011;25451;51.960;6.250;2024-01-30T01:35:39;16.20;;;6.93;;
39772;SDS011;25451;51.960;6.250;2024-01-30T01:38:05;13.52;;;5.97;;
39772;SDS011;25451;51.960;6.250;2024-01-30T01:40:30;12.57;;;5.50;;
39772;SDS011;25451;51.960;6.250;2024-01-30T01:42:55;11.70;;;5.80;;
39772;SDS011;25451;51.960;6.250;2024-01-30T01:45:21;11.95;;;5.75;;
39772;SDS011;25451;51.960;6.250;2024-01-30T01:47:47;11.30;;;5.80;;
39772;SDS011;25451;51.960;6.250;2024-01-30T01:50:15;9.50;;;5.35;;
39772;SDS011;25451;51.960;6.250;2024-01-30T01:52:43;12.30;;;5.72;;
39772;SDS011;25451;51.960;6.250;2024-01-30T01:55:09;13.77;;;5.90;;
39772;SDS011;25451;51.960;6.250;2024-01-30T01:57:34;10.63;;;5.32;;
39772;SDS011;25451;51.960;6.250;2024-01-30T02:00:01;9.40;;;5.47;;
39772;SDS011;25451;51.960;6.250;2024-01-30T02:02:27;13.03;;;5.70;;
39772;SDS011;25451;51.960;6.250;2024-01-30T02:04:59;11.38;;;5.38;;
39772;SDS011;25451;51.960;6.250;2024-01-30T02:07:25;11.73;;;5.70;;
39772;SDS011;25451;51.960;6.250;2024-01-30T02:09:52;10.80;;;5.80;;
39772;SDS011;25451;51.960;6.250;2024-01-30T02:12:17;11.47;;;5.80;;
39772;SDS011;25451;51.960;6.250;2024-01-30T02:14:46;10.30;;;5.80;;
39772;SDS011;25451;51.960;6.250;2024-01-30T02:17:12;11.00;;;5.70;;
39772;SDS011;25451;51.960;6.250;2024-01-30T02:19:38;12.73;;;5.85;;
39772;SDS011;25451;51.960;6.250;2024-01-30T02:22:04;13.80;;;6.15;;
39772;SDS011;25451;51.960;6.250;2024-01-30T02:24:29;12.17;;;5.80;;
39772;SDS011;25451;51.960;6.250;2024-01-30T02:26:55;11.93;;;5.90;;
39772;SDS011;25451;51.960;6.250;2024-01-30T02:29:20;14.47;;;5.57;;
39772;SDS011;25451;51.960;6.250;2024-01-30T02:31:46;13.15;;;5.95;;
39772;SDS011;25451;51.960;6.250;2024-01-30T02:34:11;11.60;;;5.32;;
39772;SDS011;25451;51.960;6.250;2024-01-30T02:36:36;11.80;;;6.00;;
39772;SDS011;25451;51.960;6.250;2024-01-30T02:39:02;14.60;;;5.87;;
39772;SDS011;25451;51.960;6.250;2024-01-30T02:41:27;11.67;;;5.80;;
39772;SDS011;25451;51.960;6.250;2024-01-30T02:43:52;11.07;;;5.23;;
39772;SDS011;25451;51.960;6.250;2024-01-30T02:46:18;11.47;;;5.30;;
39772;SDS011;25451;51.960;6.250;2024-01-30T02:48:43;10.93;;;5.80;;
39772;SDS011;25451;51.960;6.250;2024-01-30T02:51:08;11.13;;;5.82;;
39772;SDS011;25451;51.960;6.250;2024-01-30T02:53:34;12.75;;;5.78;;
39772;SDS011;25451;51.960;6.250;2024-01-30T02:55:59;10.98;;;5.32;;
39772;SDS011;25451;51.960;6.250;2024-01-30T02:58:24;10.07;;;5.60;;
39772;SDS011;25451;51.960;6.250;2024-01-30T03:00:49;12.95;;;5.60;;
39772;SDS011;25451;51.960;6.250;2024-01-30T03:03:15;9.57;;;5.20;;
39772;SDS011;25451;51.960;6.250;2024-01-30T03:05:40;10.17;;;5.53;;
39772;SDS011;25451;51.960;6.250;2024-01-30T03:08:05;9.83;;;4.73;;
39772;SDS011;25451;51.960;6.250;2024-01-30T03:10:31;13.03;;;5.67;;
39772;SDS011;25451;51.960;6.250;2024-01-30T03:12:56;10.20;;;5.70;;
39772;SDS011;25451;51.960;6.250;2024-01-30T03:15:23;11.25;;;5.65;;
39772;SDS011;25451;51.960;6.250;2024-01-30T03:17:48;10.40;;;5.40;;
39772;SDS011;25451;51.960;6.250;2024-01-30T03:20:14;11.23;;;5.43;;
39772;SDS011;25451;51.960;6.250;2024-01-30T03:22:39;9.97;;;5.63;;
39772;SDS011;25451;51.960;6.250;2024-01-30T03:25:04;11.40;;;5.80;;
39772;SDS011;25451;51.960;6.250;2024-01-30T03:27:31;10.82;;;5.75;;
39772;SDS011;25451;51.960;6.250;2024-01-30T03:29:56;13.80;;;5.80;;
39772;SDS011;25451;51.960;6.250;2024-01-30T03:32:21;9.83;;;5.47;;
39772;SDS011;25451;51.960;6.250;2024-01-30T03:34:47;11.57;;;5.37;;
39772;SDS011;25451;51.960;6.250;2024-01-30T03:37:12;10.80;;;5.80;;
39772;SDS011;25451;51.960;6.250;2024-01-30T03:39:37;15.10;;;5.97;;
39772;SDS011;25451;51.960;6.250;2024-01-30T03:42:03;12.15;;;5.90;;
39772;SDS011;25451;51.960;6.250;2024-01-30T03:44:28;11.50;;;5.77;;
39772;SDS011;25451;51.960;6.250;2024-01-30T03:46:54;11.50;;;5.83;;
39772;SDS011;25451;51.960;6.250;2024-01-30T03:49:19;11.73;;;5.70;;
39772;SDS011;25451;51.960;6.250;2024-01-30T03:51:44;11.00;;;6.40;;
39772;SDS011;25451;51.960;6.250;2024-01-30T03:54:10;12.73;;;5.60;;
39772;SDS011;25451;51.960;6.250;2024-01-30T03:56:35;14.00;;;6.10;;
39772;SDS011;25451;51.960;6.250;2024-01-30T03:59:00;12.23;;;5.43;;
39772;SDS011;25451;51.960;6.250;2024-01-30T04:01:27;11.70;;;6.38;;
39772;SDS011;25451;51.960;6.250;2024-01-30T04:03:53;13.43;;;6.07;;
39772;SDS011;25451;51.960;6.250;2024-01-30T04:06:18;9.80;;;5.00;;
39772;SDS011;25451;51.960;6.250;2024-01-30T04:08:43;10.83;;;6.20;;
39772;SDS011;25451;51.960;6.250;2024-01-30T04:11:08;12.23;;;6.10;;
39772;SDS011;25451;51.960;6.250;2024-01-30T04:13:34;11.50;;;5.55;;
39772;SDS011;25451;51.960;6.250;2024-01-30T04:15:59;10.50;;;5.40;;
39772;SDS011;25451;51.960;6.250;2024-01-30T04:18:28;10.47;;;5.73;;
39772;SDS011;25451;51.960;6.250;2024-01-30T04:20:54;14.63;;;6.47;;
39772;SDS011;25451;51.960;6.250;2024-01-30T04:23:20;12.15;;;5.85;;
39772;SDS011;25451;51.960;6.250;2024-01-30T04:25:45;12.20;;;6.20;;
39772;SDS011;25451;51.960;6.250;2024-01-30T04:28:10;10.57;;;5.57;;
39772;SDS011;25451;51.960;6.250;2024-01-30T04:30:38;10.27;;;5.60;;
39772;SDS011;25451;51.960;6.250;2024-01-30T04:33:04;12.00;;;5.77;;
39772;SDS011;25451;51.960;6.250;2024-01-30T04:35:29;11.63;;;6.20;;
39772;SDS011;25451;51.960;6.250;2024-01-30T04:37:55;11.43;;;5.73;;
39772;SDS011;25451;51.960;6.250;2024-01-30T04:40:20;12.63;;;6.17;;
39772;SDS011;25451;51.960;6.250;2024-01-30T04:42:46;12.20;;;5.72;;
39772;SDS011;25451;51.960;6.250;2024-01-30T04:45:11;11.23;;;5.40;;
39772;SDS011;25451;51.960;6.250;2024-01-30T04:47:37;10.88;;;5.63;;
39772;SDS011;25451;51.960;6.250;2024-01-30T04:50:03;11.57;;;5.67;;
39772;SDS011;25451;51.960;6.250;2024-01-30T04:52:30;9.55;;;5.00;;
39772;SDS011;25451;51.960;6.250;2024-01-30T04:54:55;8.73;;;4.83;;
39772;SDS011;25451;51.960;6.250;2024-01-30T04:57:20;10.70;;;4.83;;
39772;SDS011;25451;51.960;6.250;2024-01-30T04:59:45;10.67;;;5.17;;
39772;SDS011;25451;51.960;6.250;2024-01-30T05:02:11;12.47;;;5.50;;
39772;SDS011;25451;51.960;6.250;2024-01-30T05:04:36;11.23;;;5.30;;
39772;SDS011;25451;51.960;6.250;2024-01-30T05:07:01;9.80;;;5.45;;
39772;SDS011;25451;51.960;6.250;2024-01-30T05:09:27;12.43;;;5.27;;
39772;SDS011;25451;51.960;6.250;2024-01-30T05:11:53;11.43;;;5.40;;
39772;SDS011;25451;51.960;6.250;2024-01-30T05:14:18;11.60;;;5.55;;
39772;SDS011;25451;51.960;6.250;2024-01-30T05:16:44;10.63;;;5.57;;
39772;SDS011;25451;51.960;6.250;2024-01-30T05:19:11;12.10;;;5.20;;
39772;SDS011;25451;51.960;6.250;2024-01-30T05:21:38;11.57;;;5.72;;
39772;SDS011;25451;51.960;6.250;2024-01-30T05:24:03;12.00;;;5.30;;
39772;SDS011;25451;51.960;6.250;2024-01-30T05:26:29;9.85;;;5.22;;
39772;SDS011;25451;51.960;6.250;2024-01-30T05:28:55;12.03;;;5.57;;
39772;SDS011;25451;51.960;6.250;2024-01-30T05:31:20;12.02;;;5.70;;
39772;SDS011;25451;51.960;6.250;2024-01-30T05:33:46;10.53;;;5.47;;
39772;SDS011;25451;51.960;6.250;2024-01-30T05:36:11;10.50;;;5.37;;
39772;SDS011;25451;51.960;6.250;2024-01-30T05:38:38;13.18;;;5.75;;
39772;SDS011;25451;51.960;6.250;2024-01-30T05:41:03;11.13;;;5.43;;
39772;SDS011;25451;51.960;6.250;2024-01-30T05:43:29;9.23;;;5.17;;
39772;SDS011;25451;51.960;6.250;2024-01-30T05:45:54;12.27;;;5.70;;
39772;SDS011;25451;51.960;6.250;2024-01-30T05:48:19;11.83;;;5.93;;
39772;SDS011;25451;51.960;6.250;2024-01-30T05:50:45;12.10;;;5.70;;
39772;SDS011;25451;51.960;6.250;2024-01-30T05:53:11;9.85;;;5.20;;
39772;SDS011;25451;51.960;6.250;2024-01-30T05:55:36;12.50;;;5.30;;
39772;SDS011;25451;51.960;6.250;2024-01-30T05:58:02;10.98;;;5.53;;
39772;SDS011;25451;51.960;6.250;2024-01-30T06:00:27;11.87;;;5.50;;
39772;SDS011;25451;51.960;6.250;2024-01-30T06:02:52;9.90;;;5.17;;
39772;SDS011;25451;51.960;6.250;2024-01-30T06:05:18;9.70;;;5.17;;
39772;SDS011;25451;51.960;6.250;2024-01-30T06:07:43;8.77;;;5.00;;
39772;SDS011;25451;51.960;6.250;2024-01-30T06:10:08;10.97;;;5.50;;
39772;SDS011;25451;51.960;6.250;2024-01-30T06:12:34;10.63;;;5.30;;
39772;SDS011;25451;51.960;6.250;2024-01-30T06:15:00;9.30;;;5.40;;
39772;SDS011;25451;51.960;6.250;2024-01-30T06:17:25;13.55;;;5.35;;
39772;SDS011;25451;51.960;6.250;2024-01-30T06:19:51;11.63;;;5.22;;
39772;SDS011;25451;51.960;6.250;2024-01-30T06:22:16;10.53;;;5.23;;
39772;SDS011;25451;51.960;6.250;2024-01-30T06:24:41;11.97;;;5.40;;
39772;SDS011;25451;51.960;6.250;2024-01-30T06:27:09;12.50;;;5.17;;
39772;SDS011;25451;51.960;6.250;2024-01-30T06:29:35;9.27;;;5.07;;
39772;SDS011;25451;51.960;6.250;2024-01-30T06:32:00;11.57;;;4.83;;
39772;SDS011;25451;51.960;6.250;2024-01-30T06:34:25;10.90;;;5.17;;
39772;SDS011;25451;51.960;6.250;2024-01-30T06:36:51;10.03;;;4.93;;
39772;SDS011;25451;51.960;6.250;2024-01-30T06:39:16;9.10;;;4.90;;
39772;SDS011;25451;51.960;6.250;2024-01-30T06:41:42;11.80;;;5.10;;
39772;SDS011;25451;51.960;6.250;2024-01-30T06:44:07;9.30;;;4.87;;
39772;SDS011;25451;51.960;6.250;2024-01-30T06:46:33;9.02;;;4.88;;
39772;SDS011;25451;51.960;6.250;2024-01-30T06:48:59;10.20;;;5.28;;
39772;SDS011;25451;51.960;6.250;2024-01-30T06:51:24;11.63;;;5.43;;
39772;SDS011;25451;51.960;6.250;2024-01-30T06:53:49;9.27;;;4.70;;
39772;SDS011;25451;51.960;6.250;2024-01-30T06:56:15;10.43;;;4.93;;
39772;SDS011;25451;51.960;6.250;2024-01-30T06:58:41;8.88;;;4.95;;
39772;SDS011;25451;51.960;6.250;2024-01-30T07:01:07;9.43;;;4.80;;
39772;SDS011;25451;51.960;6.250;2024-01-30T07:03:32;12.13;;;5.17;;
39772;SDS011;25451;51.960;6.250;2024-01-30T07:05:57;11.40;;;5.13;;
39772;SDS011;25451;51.960;6.250;2024-01-30T07:08:22;11.30;;;5.60;;
39772;SDS011;25451;51.960;6.250;2024-01-30T07:10:48;10.00;;;5.17;;
39772;SDS011;25451;51.960;6.250;2024-01-30T07:13:13;9.97;;;5.00;;
39772;SDS011;25451;51.960;6.250;2024-01-30T07:15:41;11.30;;;5.22;;
39772;SDS011;25451;51.960;6.250;2024-01-30T07:18:07;8.80;;;4.87;;
39772;SDS011;25451;51.960;6.250;2024-01-30T07:20:32;9.00;;;4.32;;
39772;SDS011;25451;51.960;6.250;2024-01-30T07:22:58;8.77;;;4.70;;
39772;SDS011;25451;51.960;6.250;2024-01-30T07:25:23;10.17;;;4.60;;
39772;SDS011;25451;51.960;6.250;2024-01-30T07:27:52;10.18;;;5.07;;
39772;SDS011;25451;51.960;6.250;2024-01-30T07:30:18;9.13;;;4.65;;
39772;SDS011;25451;51.960;6.250;2024-01-30T07:32:44;11.30;;;5.10;;
39772;SDS011;25451;51.960;6.250;2024-01-30T07:35:10;11.05;;;5.10;;
39772;SDS011;25451;51.960;6.250;2024-01-30T07:37:36;9.53;;;4.53;;
39772;SDS011;25451;51.960;6.250;2024-01-30T07:40:02;10.50;;;4.70;;
39772;SDS011;25451;51.960;6.250;2024-01-30T07:42:28;9.32;;;5.07;;
39772;SDS011;25451;51.960;6.250;2024-01-30T07:44:53;10.23;;;4.70;;
39772;SDS011;25451;51.960;6.250;2024-01-30T07:47:18;10.43;;;5.13;;
39772;SDS011;25451;51.960;6.250;2024-01-30T07:49:44;10.60;;;5.10;;
39772;SDS011;25451;51.960;6.250;2024-01-30T07:52:09;10.70;;;5.03;;
39772;SDS011;25451;51.960;6.250;2024-01-30T07:54:34;11.07;;;5.10;;
39772;SDS011;25451;51.960;6.250;2024-01-30T07:57:13;10.82;;;5.07;;
39772;SDS011;25451;51.960;6.250;2024-01-30T07:59:39;9.67;;;5.10;;
39772;SDS011;25451;51.960;6.250;2024-01-30T08:02:04;11.27;;;5.10;;
39772;SDS011;25451;51.960;6.250;2024-01-30T08:04:29;11.03;;;5.03;;
39772;SDS011;25451;51.960;6.250;2024-01-30T08:06:54;10.93;;;4.87;;
39772;SDS011;25451;51.960;6.250;2024-01-30T08:09:20;9.73;;;5.20;;
39772;SDS011;25451;51.960;6.250;2024-01-30T08:11:45;11.03;;;5.03;;
39772;SDS011;25451;51.960;6.250;2024-01-30T08:14:10;8.90;;;4.73;;
39772;SDS011;25451;51.960;6.250;2024-01-30T08:16:36;10.75;;;4.65;;
39772;SDS011;25451;51.960;6.250;2024-01-30T08:19:01;8.93;;;4.53;;
39772;SDS011;25451;51.960;6.250;2024-01-30T08:21:26;8.05;;;4.10;;
39772;SDS011;25451;51.960;6.250;2024-01-30T08:23:52;11.43;;;4.77;;
39772;SDS011;25451;51.960;6.250;2024-01-30T08:26:17;7.80;;;3.50;;
39772;SDS011;25451;51.960;6.250;2024-01-30T08:28:42;8.57;;;3.87;;
39772;SDS011;25451;51.960;6.250;2024-01-30T08:31:10;8.40;;;4.00;;
39772;SDS011;25451;51.960;6.250;2024-01-30T08:33:35;6.32;;;3.55;;
39772;SDS011;25451;51.960;6.250;2024-01-30T08:36:01;8.07;;;3.97;;
39772;SDS011;25451;51.960;6.250;2024-01-30T08:38:26;8.67;;;3.93;;
39772;SDS011;25451;51.960;6.250;2024-01-30T08:40:51;9.07;;;3.83;;
39772;SDS011;25451;51.960;6.250;2024-01-30T08:43:17;8.35;;;3.78;;
39772;SDS011;25451;51.960;6.250;2024-01-30T08:45:42;9.47;;;3.90;;
39772;SDS011;25451;51.960;6.250;2024-01-30T08:48:08;8.23;;;3.80;;
39772;SDS011;25451;51.960;6.250;2024-01-30T08:50:33;8.60;;;4.10;;
39772;SDS011;25451;51.960;6.250;2024-01-30T08:52:59;8.07;;;3.72;;
39772;SDS011;25451;51.960;6.250;2024-01-30T08:55:24;6.87;;;3.70;;
39772;SDS011;25451;51.960;6.250;2024-01-30T08:57:50;7.77;;;4.00;;
39772;SDS011;25451;51.960;6.250;2024-01-30T09:00:17;7.82;;;3.90;;
39772;SDS011;25451;51.960;6.250;2024-01-30T09:02:42;8.33;;;4.10;;
39772;SDS011;25451;51.960;6.250;2024-01-30T09:05:07;8.40;;;4.20;;
39772;SDS011;25451;51.960;6.250;2024-01-30T09:07:33;8.17;;;4.07;;
39772;SDS011;25451;51.960;6.250;2024-01-30T09:09:58;8.27;;;3.77;;
39772;SDS011;25451;51.960;6.250;2024-01-30T09:12:23;7.47;;;3.87;;
39772;SDS011;25451;51.960;6.250;2024-01-30T09:14:49;9.35;;;4.10;;
39772;SDS011;25451;51.960;6.250;2024-01-30T09:17:14;9.10;;;4.03;;
39772;SDS011;25451;51.960;6.250;2024-01-30T09:19:40;8.17;;;4.00;;
39772;SDS011;25451;51.960;6.250;2024-01-30T09:22:05;8.50;;;4.40;;
39772;SDS011;25451;51.960;6.250;2024-01-30T09:24:31;9.70;;;4.30;;
39772;SDS011;25451;51.960;6.250;2024-01-30T09:26:56;8.30;;;4.20;;
39772;SDS011;25451;51.960;6.250;2024-01-30T09:29:21;9.33;;;4.27;;
39772;SDS011;25451;51.960;6.250;2024-01-30T09:31:47;8.13;;;4.37;;
39772;SDS011;25451;51.960;6.250;2024-01-30T09:34:13;9.33;;;4.10;;
39772;SDS011;25451;51.960;6.250;2024-01-30T09:36:38;8.68;;;4.15;;
39772;SDS011;25451;51.960;6.250;2024-01-30T09:39:04;8.47;;;4.10;;
39772;SDS011;25451;51.960;6.250;2024-01-30T09:41:29;9.53;;;4.20;;
39772;SDS011;25451;51.960;6.250;2024-01-30T09:43:58;9.90;;;4.40;;
39772;SDS011;25451;51.960;6.250;2024-01-30T09:46:26;8.27;;;4.60;;
39772;SDS011;25451;51.960;6.250;2024-01-30T09:48:55;8.95;;;4.05;;
39772;SDS011;25451;51.960;6.250;2024-01-30T09:51:20;9.07;;;4.13;;
39772;SDS011;25451;51.960;6.250;2024-01-30T09:53:47;7.93;;;3.70;;
39772;SDS011;25451;51.960;6.250;2024-01-30T09:56:12;7.75;;;4.07;;
39772;SDS011;25451;51.960;6.250;2024-01-30T09:58:38;10.60;;;4.30;;
39772;SDS011;25451;51.960;6.250;2024-01-30T10:01:04;9.02;;;4.32;;
39772;SDS011;25451;51.960;6.250;2024-01-30T10:03:30;10.10;;;4.43;;
39772;SDS011;25451;51.960;6.250;2024-01-30T10:05:55;9.50;;;4.35;;
39772;SDS011;25451;51.960;6.250;2024-01-30T10:08:21;11.17;;;4.40;;
39772;SDS011;25451;51.960;6.250;2024-01-30T10:10:46;9.63;;;4.30;;
39772;SDS011;25451;51.960;6.250;2024-01-30T10:13:12;8.75;;;4.10;;
39772;SDS011;25451;51.960;6.250;2024-01-30T10:15:38;11.30;;;4.10;;
39772;SDS011;25451;51.960;6.250;2024-01-30T10:18:04;10.10;;;4.22;;
39772;SDS011;25451;51.960;6.250;2024-01-30T10:20:31;8.15;;;4.40;;
39772;SDS011;25451;51.960;6.250;2024-01-30T10:22:57;10.82;;;4.30;;
39772;SDS011;25451;51.960;6.250;2024-01-30T10:25:22;12.90;;;4.50;;
39772;SDS011;25451;51.960;6.250;2024-01-30T10:27:52;13.30;;;4.33;;
39772;SDS011;25451;51.960;6.250;2024-01-30T10:30:19;7.47;;;4.07;;
39772;SDS011;25451;51.960;6.250;2024-01-30T10:32:44;7.90;;;3.90;;
39772;SDS011;25451;51.960;6.250;2024-01-30T10:35:09;7.97;;;4.43;;
39772;SDS011;25451;51.960;6.250;2024-01-30T10:37:35;8.83;;;4.37;;
39772;SDS011;25451;51.960;6.250;2024-01-30T10:40:02;13.02;;;5.20;;
39772;SDS011;25451;51.960;6.250;2024-01-30T10:42:31;10.57;;;4.53;;
39772;SDS011;25451;51.960;6.250;2024-01-30T10:48:18;9.75;;;4.43;;
39772;SDS011;25451;51.960;6.250;2024-01-30T10:50:50;10.68;;;4.50;;
39772;SDS011;25451;51.960;6.250;2024-01-30T10:53:16;11.45;;;4.47;;
39772;SDS011;25451;51.960;6.250;2024-01-30T10:55:43;8.70;;;4.50;;
39772;SDS011;25451;51.960;6.250;2024-01-30T10:58:11;9.60;;;4.43;;
39772;SDS011;25451;51.960;6.250;2024-01-30T11:00:37;9.18;;;4.78;;
39772;SDS011;25451;51.960;6.250;2024-01-30T11:03:04;9.45;;;4.82;;
39772;SDS011;25451;51.960;6.250;2024-01-30T11:05:29;12.33;;;4.87;;
39772;SDS011;25451;51.960;6.250;2024-01-30T11:07:55;10.68;;;4.88;;
39772;SDS011;25451;51.960;6.250;2024-01-30T11:10:20;10.60;;;4.63;;
39772;SDS011;25451;51.960;6.250;2024-01-30T11:12:46;10.77;;;4.40;;
39772;SDS011;25451;51.960;6.250;2024-01-30T11:15:12;8.13;;;4.33;;
39772;SDS011;25451;51.960;6.250;2024-01-30T11:22:53;8.77;;;4.38;;
39772;SDS011;25451;51.960;6.250;2024-01-30T11:25:21;8.33;;;4.27;;
39772;SDS011;25451;51.960;6.250;2024-01-30T11:27:49;13.15;;;4.97;;
39772;SDS011;25451;51.960;6.250;2024-01-30T11:30:28;8.35;;;4.78;;
39772;SDS011;25451;51.960;6.250;2024-01-30T11:33:02;9.35;;;4.88;;
39772;SDS011;25451;51.960;6.250;2024-01-30T11:35:36;10.93;;;4.95;;
39772;SDS011;25451;51.960;6.250;2024-01-30T11:38:04;10.70;;;4.53;;
39772;SDS011;25451;51.960;6.250;2024-01-30T11:40:31;9.60;;;4.90;;
39772;SDS011;25451;51.960;6.250;2024-01-30T11:42:58;10.18;;;4.90;;
39772;SDS011;25451;51.960;6.250;2024-01-30T11:45:24;11.90;;;4.70;;
39772;SDS011;25451;51.960;6.250;2024-01-30T11:47:50;9.37;;;4.53;;
39772;SDS011;25451;51.960;6.250;2024-01-30T11:50:15;10.37;;;4.77;;
39772;SDS011;25451;51.960;6.250;2024-01-30T11:52:41;10.32;;;4.97;;
39772;SDS011;25451;51.960;6.250;2024-01-30T11:55:08;8.57;;;4.15;;
39772;SDS011;25451;51.960;6.250;2024-01-30T11:57:34;9.02;;;4.70;;
39772;SDS011;25451;51.960;6.250;2024-01-30T12:00:03;9.43;;;4.63;;
39772;SDS011;25451;51.960;6.250;2024-01-30T12:02:34;11.13;;;4.75;;
39772;SDS011;25451;51.960;6.250;2024-01-30T12:05:03;9.10;;;4.70;;
39772;SDS011;25451;51.960;6.250;2024-01-30T12:07:29;11.55;;;4.80;;
39772;SDS011;25451;51.960;6.250;2024-01-30T12:09:55;10.70;;;4.82;;
39772;SDS011;25451;51.960;6.250;2024-01-30T12:12:22;9.30;;;4.57;;
39772;SDS011;25451;51.960;6.250;2024-01-30T12:14:49;10.27;;;4.85;;
39772;SDS011;25451;51.960;6.250;2024-01-30T12:19:49;9.23;;;4.38;;
39772;SDS011;25451;51.960;6.250;2024-01-30T12:22:15;12.60;;;4.40;;
39772;SDS011;25451;51.960;6.250;2024-01-30T12:24:40;8.30;;;4.27;;
39772;SDS011;25451;51.960;6.250;2024-01-30T12:27:06;10.43;;;4.33;;
39772;SDS011;25451;51.960;6.250;2024-01-30T12:29:34;9.87;;;3.97;;
39772;SDS011;25451;51.960;6.250;2024-01-30T12:31:59;8.52;;;3.90;;
39772;SDS011;25451;51.960;6.250;2024-01-30T12:34:25;8.10;;;3.80;;
39772;SDS011;25451;51.960;6.250;2024-01-30T12:36:50;10.05;;;3.50;;
39772;SDS011;25451;51.960;6.250;2024-01-30T12:39:15;8.03;;;3.40;;
39772;SDS011;25451;51.960;6.250;2024-01-30T12:41:42;7.40;;;3.58;;
39772;SDS011;25451;51.960;6.250;2024-01-30T12:44:07;5.83;;;3.53;;
39772;SDS011;25451;51.960;6.250;2024-01-30T12:46:36;7.97;;;3.30;;
39772;SDS011;25451;51.960;6.250;2024-01-30T12:49:01;7.75;;;3.58;;
39772;SDS011;25451;51.960;6.250;2024-01-30T12:51:26;8.53;;;3.70;;
39772;SDS011;25451;51.960;6.250;2024-01-30T12:53:52;7.40;;;3.60;;
39772;SDS011;25451;51.960;6.250;2024-01-30T12:56:17;5.83;;;3.77;;
39772;SDS011;25451;51.960;6.250;2024-01-30T12:58:42;9.10;;;3.73;;
39772;SDS011;25451;51.960;6.250;2024-01-30T13:01:08;9.40;;;3.60;;
39772;SDS011;25451;51.960;6.250;2024-01-30T13:03:33;7.53;;;3.57;;
39772;SDS011;25451;51.960;6.250;2024-01-30T13:05:59;10.97;;;3.93;;
39772;SDS011;25451;51.960;6.250;2024-01-30T13:08:24;9.47;;;3.80;;
39772;SDS011;25451;51.960;6.250;2024-01-30T13:10:49;8.80;;;3.73;;
39772;SDS011;25451;51.960;6.250;2024-01-30T13:13:15;7.83;;;3.17;;
39772;SDS011;25451;51.960;6.250;2024-01-30T13:15:40;10.30;;;3.13;;
39772;SDS011;25451;51.960;6.250;2024-01-30T13:18:05;6.45;;;3.22;;
39772;SDS011;25451;51.960;6.250;2024-01-30T13:20:31;6.13;;;2.40;;
39772;SDS011;25451;51.960;6.250;2024-01-30T13:22:56;4.37;;;2.37;;
39772;SDS011;25451;51.960;6.250;2024-01-30T13:25:22;5.93;;;2.30;;
39772;SDS011;25451;51.960;6.250;2024-01-30T13:27:47;6.97;;;2.73;;
39772;SDS011;25451;51.960;6.250;2024-01-30T13:30:12;8.65;;;2.47;;
39772;SDS011;25451;51.960;6.250;2024-01-30T13:32:38;5.65;;;2.30;;
39772;SDS011;25451;51.960;6.250;2024-01-30T13:35:03;4.83;;;1.90;;
39772;SDS011;25451;51.960;6.250;2024-01-30T13:37:29;5.05;;;2.00;;
39772;SDS011;25451;51.960;6.250;2024-01-30T13:39:54;6.13;;;2.03;;
39772;SDS011;25451;51.960;6.250;2024-01-30T13:42:21;5.53;;;1.95;;
39772;SDS011;25451;51.960;6.250;2024-01-30T13:44:46;6.10;;;1.83;;
39772;SDS011;25451;51.960;6.250;2024-01-30T13:47:12;4.37;;;1.80;;
39772;SDS011;25451;51.960;6.250;2024-01-30T13:49:37;4.70;;;1.70;;
39772;SDS011;25451;51.960;6.250;2024-01-30T13:52:02;3.27;;;1.23;;
39772;SDS011;25451;51.960;6.250;2024-01-30T13:54:28;7.97;;;1.50;;
39772;SDS011;25451;51.960;6.250;2024-01-30T13:56:54;4.37;;;1.37;;
39772;SDS011;25451;51.960;6.250;2024-01-30T13:59:19;3.70;;;1.30;;
39772;SDS011;25451;51.960;6.250;2024-01-30T14:01:50;2.85;;;1.08;;
39772;SDS011;25451;51.960;6.250;2024-01-30T14:04:16;3.58;;;1.15;;
39772;SDS011;25451;51.960;6.250;2024-01-30T14:06:42;3.60;;;1.10;;
39772;SDS011;25451;51.960;6.250;2024-01-30T14:09:07;2.60;;;1.00;;
39772;SDS011;25451;51.960;6.250;2024-01-30T14:11:32;3.90;;;1.10;;
39772;SDS011;25451;51.960;6.250;2024-01-30T14:13:57;2.73;;;0.87;;
39772;SDS011;25451;51.960;6.250;2024-01-30T14:16:23;3.83;;;0.90;;
39772;SDS011;25451;51.960;6.250;2024-01-30T14:18:49;1.60;;;0.73;;
39772;SDS011;25451;51.960;6.250;2024-01-30T14:21:14;2.53;;;0.80;;
39772;SDS011;25451;51.960;6.250;2024-01-30T14:23:40;1.92;;;0.73;;
39772;SDS011;25451;51.960;6.250;2024-01-30T14:26:05;6.03;;;0.90;;
39772;SDS011;25451;51.960;6.250;2024-01-30T14:28:31;4.90;;;0.90;;
39772;SDS011;25451;51.960;6.250;2024-01-30T14:30:56;3.07;;;0.90;;
39772;SDS011;25451;51.960;6.250;2024-01-30T14:33:21;3.42;;;0.80;;
39772;SDS011;25451;51.960;6.250;2024-01-30T14:35:47;1.05;;;0.65;;
39772;SDS011;25451;51.960;6.250;2024-01-30T14:38:12;4.70;;;0.95;;
39772;SDS011;25451;51.960;6.250;2024-01-30T14:40:38;3.20;;;1.20;;
39772;SDS011;25451;51.960;6.250;2024-01-30T14:43:04;5.25;;;1.90;;